This is the latest recevied weather packets stored in our database for station/object VE3VGJ. If no packets are shown the sender has not sent any weather packets the latest 10 day(s).
| Time | Temp. | Humidity | Pressure | Rain* | Wind** | Luminosity | Snow |
|---|---|---|---|---|---|---|---|
| 1777387993 | 9.44° C | 90% | 1011.6 hPa | 0 mm | - | 68 W/m² | - |
| 1777387690 | 9.44° C | 90% | 1011.6 hPa | 1.27 mm | - | 65 W/m² | - |
| 1777387386 | 9.44° C | 90% | 1011.7 hPa | 1.27 mm | - | 86 W/m² | - |
| 1777387080 | 9.44° C | 89% | 1011.8 hPa | 1.27 mm | - | 64 W/m² | - |
| 1777386777 | 9.44° C | 89% | 1011.8 hPa | 0 mm | - | 66 W/m² | - |
| 1777386474 | 9.44° C | 89% | 1011.8 hPa | 0 mm | - | 76 W/m² | - |
| 1777386171 | 8.89° C | 88% | 1011.8 hPa | 1.78 mm | - | 74 W/m² | - |
| 1777385867 | 8.89° C | 87% | 1011.9 hPa | 4.83 mm | - | 59 W/m² | - |
| 1777385564 | 8.89° C | 86% | 1011.9 hPa | 10.67 mm | - | 68 W/m² | - |
| 1777385262 | 8.89° C | 84% | 1012 hPa | 8.89 mm | - | 46 W/m² | - |
| 1777384957 | 9.44° C | 83% | 1011.9 hPa | 7.11 mm | - | 54 W/m² | - |
| 1777384655 | 9.44° C | 81% | 1011.8 hPa | 7.87 mm | - | 62 W/m² | - |
| 1777384355 | 9.44° C | 79% | 1011.4 hPa | 7.87 mm | - | 71 W/m² | - |
| 1777384051 | 10° C | 78% | 1011.4 hPa | 10.67 mm | - | 67 W/m² | - |
| 1777383747 | 10.56° C | 71% | 1011.7 hPa | 4.83 mm | - | 57 W/m² | - |
| 1777383444 | 11.11° C | 68% | 1011.7 hPa | 0 mm | - | 69 W/m² | - |
| 1777383140 | 11.11° C | 63% | 1011.6 hPa | 0 mm | - | 55 W/m² | - |
| 1777382837 | 11.67° C | 62% | 1011.7 hPa | 0 mm | - | 49 W/m² | - |
| 1777382537 | 11.67° C | 59% | 1011.4 hPa | 0 mm | - | 63 W/m² | - |
| 1777382234 | 12.22° C | 59% | 1011.2 hPa | 0 mm | - | 53 W/m² | - |
| 1777381930 | 12.22° C | 57% | 1011.3 hPa | 0 mm | - | 47 W/m² | - |
| 1777381629 | 12.22° C | 57% | 1011.2 hPa | 0 mm | - | 49 W/m² | - |
| 1777381326 | 12.22° C | 57% | 1011.1 hPa | 0 mm | - | 37 W/m² | - |
| 1777381023 | 12.78° C | 57% | 1011 hPa | 0 mm | - | 46 W/m² | - |
| 1777380719 | 12.78° C | 56% | 1011 hPa | 0 mm | - | 48 W/m² | - |
* Rain latest hour (hover to see other rain measurements)
** Current wind speed in m/s (hover to see current wind gust speed)